Terminal Aerodrome Forecast
Issued by NWS Shreveport, LA

Home | Current Version | Previous Version | Text Only | Print | Product List | Glossary On
Versions: 1 2 3 4 5 6 7 8 9 10 11 12 13 14 15 16
056
FTUS44 KSHV 271151
TAFTYR
TAF
KTYR 271151Z 2712/2812 20010G15KT P6SM BKN020 OVC030
      TEMPO 2712/2716 BKN015
     FM271600 24009KT P6SM BKN025 OVC035
     FM272100 26007KT P6SM BKN040
     FM280000 VRB03KT P6SM SCT040 BKN050
     FM280900 VRB04KT 6SM BR BKN025 OVC035=

USA.gov is the U.S. government's official web portal to all federal, state and local government web resources and services.